createdAt,value
2023-05-04T00:00:55.770Z,3.90
2023-05-04T00:01:59.521Z,4.03
2023-05-04T00:03:01.526Z,4.40
2023-05-04T00:04:04.817Z,3.88
2023-05-04T00:05:08.330Z,3.78
2023-05-04T00:06:11.434Z,4.32
2023-05-04T00:07:13.631Z,4.38
2023-05-04T00:08:22.803Z,4.90
2023-05-04T00:09:24.714Z,4.55
2023-05-04T00:10:28.078Z,4.65
2023-05-04T00:11:31.475Z,5.70
2023-05-04T00:12:34.620Z,4.45
2023-05-04T00:13:37.044Z,4.50
2023-05-04T00:14:40.047Z,5.00
2023-05-04T00:15:42.274Z,4.35
2023-05-04T00:16:45.371Z,4.00
2023-05-04T00:17:47.420Z,4.88
2023-05-04T00:18:50.323Z,4.10
2023-05-04T00:19:52.318Z,4.78
2023-05-04T00:20:55.261Z,4.13
2023-05-04T00:21:57.290Z,4.55
2023-05-04T00:23:00.207Z,4.05
2023-05-04T00:24:02.392Z,4.15
2023-05-04T00:25:06.354Z,4.78
2023-05-04T00:26:08.284Z,4.00
2023-05-04T00:27:12.727Z,4.15
2023-05-04T00:28:14.715Z,4.25
2023-05-04T00:29:17.618Z,4.20
2023-05-04T00:30:19.702Z,3.75
2023-05-04T00:31:22.768Z,4.10
2023-05-04T00:32:24.902Z,4.40
2023-05-04T00:33:27.818Z,4.55
2023-05-04T00:34:30.141Z,4.90
2023-05-04T00:35:33.381Z,4.20
2023-05-04T00:36:35.420Z,4.45
2023-05-04T00:37:38.301Z,4.38
2023-05-04T00:38:50.171Z,3.67
2023-05-04T00:39:53.378Z,3.97
2023-05-04T00:40:55.331Z,3.50
2023-05-04T00:41:58.276Z,4.70
2023-05-04T00:43:01.555Z,3.90
2023-05-04T00:44:04.590Z,3.72
2023-05-04T00:45:07.539Z,4.38
2023-05-04T00:46:11.081Z,4.10
2023-05-04T00:47:13.222Z,4.40
2023-05-04T00:48:16.532Z,4.43
2023-05-04T00:49:18.785Z,4.07
2023-05-04T00:50:22.159Z,4.03
2023-05-04T00:51:25.487Z,4.13
2023-05-04T00:52:30.147Z,4.22
2023-05-04T00:53:32.173Z,4.07
2023-05-04T00:54:35.987Z,3.20
2023-05-04T00:55:40.594Z,4.57
2023-05-04T00:56:43.285Z,4.43
2023-05-04T00:57:46.450Z,4.55
2023-05-04T00:58:51.924Z,3.97
2023-05-04T00:59:54.915Z,4.05
2023-05-04T01:00:57.091Z,5.32
2023-05-04T01:02:00.003Z,4.72
2023-05-04T01:03:02.010Z,4.70
2023-05-04T01:04:05.504Z,4.45
2023-05-04T01:05:09.062Z,3.83
2023-05-04T01:06:24.337Z,4.50
2023-05-04T01:07:35.329Z,4.30
2023-05-04T01:08:41.703Z,4.90
2023-05-04T01:09:48.266Z,3.95
2023-05-04T01:10:56.487Z,4.45
2023-05-04T01:12:05.021Z,4.82
2023-05-04T01:13:11.017Z,4.03
2023-05-04T01:14:16.441Z,4.53
2023-05-04T01:15:18.939Z,4.47
2023-05-04T01:16:22.237Z,4.65
2023-05-04T01:17:24.611Z,4.32
2023-05-04T01:18:27.547Z,4.55
2023-05-04T01:19:29.929Z,3.90
2023-05-04T01:20:33.223Z,5.22
2023-05-04T01:21:37.047Z,4.00
2023-05-04T01:22:40.158Z,4.55
2023-05-04T01:23:42.291Z,3.95
2023-05-04T01:24:45.277Z,4.68
2023-05-04T01:25:54.891Z,4.13
2023-05-04T01:27:04.070Z,4.20
2023-05-04T01:28:10.603Z,4.88
2023-05-04T01:29:17.748Z,4.43
2023-05-04T01:30:26.151Z,4.15
2023-05-04T01:31:29.535Z,4.05
2023-05-04T01:32:32.509Z,4.05
2023-05-04T01:33:36.548Z,4.65
2023-05-04T01:34:40.591Z,3.45
2023-05-04T01:35:43.872Z,4.05
2023-05-04T01:36:47.685Z,4.57
2023-05-04T01:37:50.852Z,3.80
2023-05-04T01:38:54.690Z,4.15
2023-05-04T01:39:57.666Z,4.15
2023-05-04T01:40:59.633Z,4.28
2023-05-04T01:42:02.689Z,3.85
2023-05-04T01:43:04.715Z,3.45
2023-05-04T01:44:07.670Z,4.18
2023-05-04T01:45:10.734Z,3.20
2023-05-04T01:46:13.824Z,5.07
2023-05-04T01:47:15.808Z,5.13
2023-05-04T01:48:19.042Z,4.53
2023-05-04T01:49:21.045Z,4.65
2023-05-04T01:50:24.021Z,3.90
2023-05-04T01:51:26.049Z,4.10
2023-05-04T01:52:30.374Z,4.13
2023-05-04T01:53:32.329Z,3.55
2023-05-04T01:54:35.320Z,3.50
2023-05-04T01:55:37.618Z,4.20
2023-05-04T01:56:40.566Z,4.32
2023-05-04T01:57:42.804Z,4.38
2023-05-04T01:58:45.741Z,4.35
2023-05-04T01:59:47.688Z,4.22
2023-05-04T02:00:50.646Z,4.40
2023-05-04T02:01:52.638Z,4.20
2023-05-04T02:02:55.820Z,4.10
2023-05-04T02:03:58.070Z,4.75
2023-05-04T02:05:01.171Z,4.50
2023-05-04T02:06:03.418Z,4.63
2023-05-04T02:07:06.674Z,4.22
2023-05-04T02:08:09.943Z,5.05
2023-05-04T02:09:12.850Z,4.47
2023-05-04T02:10:15.320Z,4.22
2023-05-04T02:11:18.424Z,4.03
2023-05-04T02:12:20.487Z,4.93
2023-05-04T02:13:23.732Z,4.00
2023-05-04T02:14:26.124Z,3.80
2023-05-04T02:15:29.124Z,4.40
2023-05-04T02:16:31.482Z,4.90
2023-05-04T02:17:35.162Z,5.47
2023-05-04T02:18:37.478Z,4.80
2023-05-04T02:19:40.434Z,4.72
2023-05-04T02:20:42.582Z,4.10
2023-05-04T02:21:46.060Z,4.05
2023-05-04T02:22:47.996Z,4.82
2023-05-04T02:23:52.355Z,4.72
2023-05-04T02:24:54.278Z,3.92
2023-05-04T02:25:57.255Z,4.22
2023-05-04T02:26:59.159Z,4.60
2023-05-04T02:28:02.206Z,4.93
2023-05-04T02:29:05.730Z,4.30
2023-05-04T02:30:09.963Z,5.10
2023-05-04T02:31:11.986Z,5.63
2023-05-04T02:32:14.936Z,4.55
2023-05-04T02:33:16.947Z,4.32
2023-05-04T02:34:20.491Z,4.38
2023-05-04T02:35:22.956Z,4.72
2023-05-04T02:36:25.940Z,4.30
2023-05-04T02:37:28.222Z,4.07
2023-05-04T02:38:31.491Z,5.13
2023-05-04T02:39:34.848Z,4.82
2023-05-04T02:40:37.821Z,4.80
2023-05-04T02:41:39.749Z,4.70
2023-05-04T02:42:42.758Z,4.35
2023-05-04T02:43:44.779Z,4.50
2023-05-04T02:44:47.696Z,5.03
2023-05-04T02:45:49.888Z,3.95
2023-05-04T02:46:52.861Z,4.38
2023-05-04T02:47:54.840Z,4.53
2023-05-04T02:48:58.002Z,4.35
2023-05-04T02:49:59.951Z,4.38
2023-05-04T02:51:03.611Z,4.32
2023-05-04T02:52:05.539Z,4.45
2023-05-04T02:53:08.521Z,4.90
2023-05-04T02:54:10.677Z,4.45
2023-05-04T02:55:15.230Z,5.05
2023-05-04T02:56:17.188Z,4.95
2023-05-04T02:57:20.099Z,4.95
2023-05-04T02:58:22.071Z,4.20
2023-05-04T02:59:25.066Z,4.55
2023-05-04T03:00:27.026Z,4.45
2023-05-04T03:01:30.543Z,4.63
2023-05-04T03:02:33.654Z,4.60
2023-05-04T03:03:36.603Z,4.18
2023-05-04T03:04:38.639Z,4.35
2023-05-04T03:05:41.838Z,4.28
2023-05-04T03:06:43.853Z,4.22
2023-05-04T03:07:46.810Z,4.97
2023-05-04T03:08:48.725Z,4.60
2023-05-04T03:09:51.620Z,5.60
2023-05-04T03:10:54.949Z,4.80
2023-05-04T03:11:57.892Z,4.32
2023-05-04T03:13:05.940Z,5.50
2023-05-04T03:14:08.970Z,4.40
2023-05-04T03:15:10.942Z,4.70
2023-05-04T03:16:13.943Z,5.15
2023-05-04T03:17:16.289Z,4.63
2023-05-04T03:18:19.557Z,5.88
2023-05-04T03:19:22.093Z,4.75
2023-05-04T03:20:25.368Z,4.70
2023-05-04T03:21:27.344Z,4.65
2023-05-04T03:22:30.353Z,5.07
2023-05-04T03:23:32.686Z,5.47
2023-05-04T03:24:37.044Z,4.40
2023-05-04T03:25:39.015Z,4.90
2023-05-04T03:26:43.348Z,4.63
2023-05-04T03:27:46.317Z,4.45
2023-05-04T03:28:48.562Z,4.60
2023-05-04T03:29:51.826Z,4.85
2023-05-04T03:30:53.778Z,4.20
2023-05-04T03:31:56.806Z,5.43
2023-05-04T03:32:59.089Z,5.03
2023-05-04T03:34:02.091Z,4.72
2023-05-04T03:35:04.432Z,5.22
2023-05-04T03:36:08.019Z,4.68
2023-05-04T03:37:11.191Z,4.25
2023-05-04T03:38:13.275Z,4.40
2023-05-04T03:39:16.440Z,4.75
2023-05-04T03:40:22.330Z,4.82
2023-05-04T03:41:24.292Z,4.55
2023-05-04T03:42:28.672Z,5.07
2023-05-04T03:43:30.622Z,3.90
2023-05-04T03:44:33.567Z,4.63
2023-05-04T03:45:36.113Z,4.93
2023-05-04T03:46:39.128Z,5.00
2023-05-04T03:47:41.321Z,4.78
2023-05-04T03:48:44.242Z,5.45
2023-05-04T03:49:46.151Z,5.20
2023-05-04T03:50:49.083Z,5.18
2023-05-04T03:51:51.018Z,4.60
2023-05-04T03:52:54.003Z,4.95
2023-05-04T03:53:55.957Z,4.78
2023-05-04T03:54:59.173Z,4.90
2023-05-04T03:56:01.170Z,4.65
2023-05-04T03:57:04.499Z,4.90
2023-05-04T03:58:07.902Z,5.00
2023-05-04T03:59:11.189Z,4.75
2023-05-04T04:00:14.560Z,4.18
2023-05-04T04:01:17.494Z,4.80
2023-05-04T04:02:19.508Z,4.10
2023-05-04T04:03:22.707Z,4.78
2023-05-04T04:04:25.249Z,4.35
2023-05-04T04:05:28.433Z,5.10
2023-05-04T04:06:31.150Z,4.68
2023-05-04T04:07:34.109Z,4.90
2023-05-04T04:08:36.152Z,6.28
2023-05-04T04:09:39.123Z,4.40
2023-05-04T04:10:42.339Z,4.78
2023-05-04T04:11:45.276Z,5.38
2023-05-04T04:12:47.299Z,4.63
2023-05-04T04:13:51.632Z,4.15
2023-05-04T04:14:53.536Z,4.88
2023-05-04T04:15:56.668Z,4.10
2023-05-04T04:16:58.667Z,5.10
2023-05-04T04:18:01.848Z,5.13
2023-05-04T04:19:03.838Z,4.90
2023-05-04T04:20:08.904Z,4.90
2023-05-04T04:21:10.976Z,4.22
2023-05-04T04:22:13.941Z,4.90
2023-05-04T04:23:18.542Z,4.93
2023-05-04T04:24:21.640Z,4.82
2023-05-04T04:25:24.290Z,5.07
2023-05-04T04:26:28.276Z,4.20
2023-05-04T04:27:30.919Z,4.28
2023-05-04T04:28:33.973Z,5.20
2023-05-04T04:29:37.416Z,4.75
2023-05-04T04:30:40.712Z,5.50
2023-05-04T04:31:42.840Z,4.70
2023-05-04T04:32:45.900Z,4.47
2023-05-04T04:33:50.080Z,5.25
2023-05-04T04:34:53.028Z,4.82
2023-05-04T04:35:55.020Z,5.45
2023-05-04T04:36:58.804Z,5.10
2023-05-04T04:38:03.353Z,4.85
2023-05-04T04:39:06.684Z,4.78
2023-05-04T04:40:10.229Z,4.85
2023-05-04T04:41:13.178Z,4.90
2023-05-04T04:42:15.140Z,5.57
2023-05-04T04:43:18.034Z,5.45
2023-05-04T04:44:20.735Z,5.03
2023-05-04T04:45:25.043Z,5.00
2023-05-04T04:46:28.091Z,4.97
2023-05-04T04:47:31.460Z,6.22
2023-05-04T04:48:34.415Z,5.05
2023-05-04T04:49:36.685Z,6.00
2023-05-04T04:50:40.100Z,5.43
2023-05-04T04:51:42.120Z,5.97
2023-05-04T04:52:45.105Z,4.90
2023-05-04T04:53:47.100Z,5.15
2023-05-04T04:54:50.115Z,5.28
2023-05-04T04:55:54.044Z,5.57
2023-05-04T04:56:56.256Z,5.55
2023-05-04T04:57:59.157Z,5.80
2023-05-04T04:59:01.135Z,4.78
2023-05-04T05:00:07.751Z,4.85
2023-05-04T05:01:11.237Z,4.60
2023-05-04T05:02:14.225Z,5.63
2023-05-04T05:03:16.243Z,5.03
2023-05-04T05:04:19.957Z,5.88
2023-05-04T05:05:22.019Z,5.47
2023-05-04T05:06:25.450Z,6.07
2023-05-04T05:07:27.713Z,5.38
2023-05-04T05:08:30.610Z,5.68
2023-05-04T05:09:32.575Z,5.97
2023-05-04T05:10:35.588Z,4.93
2023-05-04T05:11:37.574Z,5.53
2023-05-04T05:12:40.857Z,5.82
2023-05-04T05:13:42.878Z,6.03
2023-05-04T05:14:47.219Z,4.97
2023-05-04T05:15:50.137Z,5.95
2023-05-04T05:16:53.651Z,5.90
2023-05-04T05:17:56.980Z,5.70
2023-05-04T05:18:58.970Z,5.80
2023-05-04T05:20:02.073Z,6.22
2023-05-04T05:21:05.714Z,5.35
2023-05-04T05:22:07.655Z,5.65
2023-05-04T05:23:10.621Z,5.35
2023-05-04T05:24:12.534Z,5.20
2023-05-04T05:25:15.518Z,5.70
2023-05-04T05:26:17.698Z,5.95
2023-05-04T05:27:20.595Z,6.30
2023-05-04T05:28:23.863Z,5.13
2023-05-04T05:29:26.155Z,5.15
2023-05-04T05:30:29.117Z,5.57
2023-05-04T05:31:31.924Z,5.65
2023-05-04T05:32:36.514Z,5.30
2023-05-04T05:33:39.484Z,5.70
2023-05-04T05:34:42.912Z,4.60
2023-05-04T05:35:46.157Z,4.65
2023-05-04T05:36:49.030Z,6.10
2023-05-04T05:37:52.011Z,5.00
2023-05-04T05:38:53.995Z,5.25
2023-05-04T05:39:56.970Z,5.40
2023-05-04T05:40:58.934Z,5.47
2023-05-04T05:42:01.901Z,5.55
2023-05-04T05:43:05.496Z,5.28
2023-05-04T05:44:08.482Z,5.85
2023-05-04T05:45:11.403Z,5.18
2023-05-04T05:46:15.651Z,6.28
2023-05-04T05:47:17.668Z,5.75
2023-05-04T05:48:21.949Z,5.60
2023-05-04T05:49:23.953Z,4.70
2023-05-04T05:50:26.884Z,5.10
2023-05-04T05:51:28.795Z,5.70
2023-05-04T05:52:31.764Z,5.95
2023-05-04T05:53:34.018Z,5.13
2023-05-04T05:54:37.236Z,5.35
2023-05-04T05:55:39.145Z,6.22
2023-05-04T05:56:42.100Z,4.32
2023-05-04T05:57:44.072Z,5.45
2023-05-04T05:58:46.976Z,5.30
2023-05-04T05:59:48.963Z,5.28
2023-05-04T06:00:51.922Z,5.38
2023-05-04T06:01:54.719Z,5.57
2023-05-04T06:02:57.751Z,6.20
2023-05-04T06:04:01.277Z,5.93
2023-05-04T06:05:04.876Z,5.90
2023-05-04T06:06:06.980Z,5.80
2023-05-04T06:07:09.961Z,6.50
2023-05-04T06:08:15.072Z,5.45
2023-05-04T06:09:16.984Z,5.40
2023-05-04T06:10:19.957Z,5.55
2023-05-04T06:11:21.977Z,5.00
2023-05-04T06:12:25.002Z,5.43
2023-05-04T06:13:28.068Z,4.90
2023-05-04T06:14:31.018Z,6.15
2023-05-04T06:15:34.593Z,5.50
2023-05-04T06:16:37.888Z,6.00
2023-05-04T06:17:39.903Z,6.70
2023-05-04T06:18:42.874Z,5.68
2023-05-04T06:19:50.787Z,6.28
2023-05-04T06:20:59.622Z,5.10
2023-05-04T06:22:01.709Z,5.22
2023-05-04T06:23:04.842Z,5.10
2023-05-04T06:24:07.210Z,5.90
2023-05-04T06:25:11.460Z,5.78
2023-05-04T06:26:13.532Z,5.55
2023-05-04T06:27:16.642Z,6.25
2023-05-04T06:28:18.610Z,5.82
2023-05-04T06:29:21.548Z,6.50
2023-05-04T06:30:24.446Z,6.05
2023-05-04T06:31:27.934Z,5.85
2023-05-04T06:32:31.007Z,6.35
2023-05-04T06:33:33.039Z,6.07
2023-05-04T06:34:36.025Z,6.28
2023-05-04T06:35:40.339Z,6.03
2023-05-04T06:36:42.299Z,5.70
2023-05-04T06:37:45.195Z,5.20
2023-05-04T06:38:48.161Z,6.60
2023-05-04T06:39:50.136Z,5.93
2023-05-04T06:40:53.098Z,6.68
2023-05-04T06:41:55.112Z,5.93
2023-05-04T06:42:58.087Z,6.45
2023-05-04T06:44:02.441Z,5.85
2023-05-04T06:45:06.126Z,6.47
2023-05-04T06:46:08.275Z,6.55
2023-05-04T06:47:12.382Z,7.07
2023-05-04T06:48:15.352Z,6.78
2023-05-04T06:49:19.271Z,6.55
2023-05-04T06:50:23.730Z,6.05
2023-05-04T06:51:28.064Z,6.68
2023-05-04T06:52:30.029Z,6.50
2023-05-04T06:53:32.955Z,6.55
2023-05-04T06:54:34.912Z,6.93
2023-05-04T06:55:38.582Z,5.90
2023-05-04T06:56:40.667Z,7.15
2023-05-04T06:57:43.644Z,7.32
2023-05-04T06:58:46.591Z,7.50
2023-05-04T06:59:49.844Z,6.45
2023-05-04T07:00:53.055Z,6.65
2023-05-04T07:01:55.044Z,7.18
2023-05-04T07:02:58.086Z,6.05
2023-05-04T07:04:00.099Z,7.00
2023-05-04T07:05:03.894Z,6.53
2023-05-04T07:06:06.009Z,6.22
2023-05-04T07:07:10.329Z,7.28
2023-05-04T07:08:13.414Z,6.53
2023-05-04T07:09:16.076Z,6.70
2023-05-04T07:10:19.665Z,7.22
2023-05-04T07:11:22.013Z,7.28
2023-05-04T07:12:25.107Z,6.40
2023-05-04T07:13:28.310Z,7.13
2023-05-04T07:14:30.214Z,5.68
2023-05-04T07:15:33.859Z,5.43
2023-05-04T07:16:36.231Z,6.35
2023-05-04T07:17:40.067Z,5.68
2023-05-04T07:18:43.401Z,5.80
2023-05-04T07:19:45.348Z,6.38
2023-05-04T07:20:48.422Z,5.97
2023-05-04T07:21:51.328Z,5.50
2023-05-04T07:22:56.907Z,5.97
2023-05-04T07:23:58.834Z,5.65
2023-05-04T07:25:02.279Z,5.85
2023-05-04T07:26:04.434Z,5.20
2023-05-04T07:27:07.415Z,5.53
2023-05-04T07:28:10.356Z,5.63
2023-05-04T07:29:12.292Z,6.00
2023-05-04T07:30:15.672Z,5.57
2023-05-04T07:31:17.578Z,5.65
2023-05-04T07:32:20.724Z,5.30
2023-05-04T07:33:23.762Z,6.05
2023-05-04T07:34:37.970Z,5.95
2023-05-04T07:35:47.909Z,5.70
2023-05-04T07:36:49.843Z,6.40
2023-05-04T07:37:52.774Z,5.57
2023-05-04T07:38:57.091Z,6.35
2023-05-04T07:40:00.224Z,5.53
2023-05-04T07:41:03.198Z,4.95
2023-05-04T07:42:05.172Z,5.80
2023-05-04T07:43:08.046Z,6.13
2023-05-04T07:44:11.221Z,6.47
2023-05-04T07:45:16.307Z,5.57
2023-05-04T07:46:19.371Z,6.65
2023-05-04T07:47:23.091Z,5.07
2023-05-04T07:48:27.287Z,5.40
2023-05-04T07:49:29.381Z,5.30
2023-05-04T07:50:32.374Z,5.65
2023-05-04T07:51:34.376Z,5.75
2023-05-04T07:52:37.322Z,5.85
2023-05-04T07:53:39.252Z,5.63
2023-05-04T07:54:44.066Z,5.55
2023-05-04T07:55:46.002Z,5.43
2023-05-04T07:56:49.014Z,5.63
2023-05-04T07:57:52.010Z,5.85
2023-05-04T07:58:53.975Z,5.60
2023-05-04T07:59:57.058Z,5.85
2023-05-04T08:00:59.108Z,5.43
2023-05-04T08:02:02.170Z,5.70
2023-05-04T08:03:05.235Z,7.20
2023-05-04T08:04:08.173Z,6.53
2023-05-04T08:05:11.896Z,5.68
2023-05-04T08:06:13.820Z,5.85
2023-05-04T08:07:17.173Z,6.10
2023-05-04T08:08:19.163Z,6.25
2023-05-04T08:09:22.077Z,5.30
2023-05-04T08:10:26.406Z,5.90
2023-05-04T08:11:28.450Z,5.50
2023-05-04T08:12:31.417Z,5.57
2023-05-04T08:13:34.359Z,5.65
2023-05-04T08:14:38.534Z,5.28
2023-05-04T08:15:41.266Z,5.55
2023-05-04T08:16:44.191Z,5.35
2023-05-04T08:17:47.163Z,5.25
2023-05-04T08:18:50.068Z,5.55
2023-05-04T08:19:52.198Z,5.35
2023-05-04T08:20:55.179Z,5.90
2023-05-04T08:21:57.193Z,5.45
2023-05-04T08:23:01.227Z,5.55
2023-05-04T08:24:03.576Z,5.68
2023-05-04T08:25:07.679Z,5.85
2023-05-04T08:26:12.366Z,5.85
2023-05-04T08:27:14.767Z,5.53
2023-05-04T08:28:18.298Z,6.32
2023-05-04T08:29:20.293Z,5.75
2023-05-04T08:30:23.450Z,4.75
2023-05-04T08:31:25.400Z,5.90
2023-05-04T08:32:29.587Z,6.30
2023-05-04T08:33:34.488Z,5.85
2023-05-04T08:34:38.507Z,5.38
2023-05-04T08:35:41.462Z,5.57
2023-05-04T08:36:44.414Z,5.93
2023-05-04T08:37:48.259Z,5.72
2023-05-04T08:38:53.527Z,5.55
2023-05-04T08:39:55.491Z,5.88
2023-05-04T08:40:58.665Z,5.18
2023-05-04T08:42:03.668Z,5.40
2023-05-04T08:43:06.632Z,6.40
2023-05-04T08:44:11.143Z,5.70
2023-05-04T08:45:14.876Z,5.10
2023-05-04T08:46:17.262Z,6.05
2023-05-04T08:47:20.798Z,5.15
2023-05-04T08:48:23.784Z,4.95
2023-05-04T08:49:27.211Z,4.90
2023-05-04T08:50:30.267Z,5.30
2023-05-04T08:51:37.415Z,5.05
2023-05-04T08:52:46.456Z,5.95
2023-05-04T08:53:51.704Z,6.20
2023-05-04T08:54:55.035Z,5.38
2023-05-04T08:56:04.011Z,5.45
2023-05-04T08:57:07.490Z,4.82
2023-05-04T08:58:12.762Z,5.43
2023-05-04T08:59:19.815Z,5.30
2023-05-04T09:00:23.582Z,5.07
2023-05-04T09:01:26.718Z,5.13
2023-05-04T09:02:31.289Z,4.82
2023-05-04T09:03:35.851Z,5.38
2023-05-04T09:04:39.019Z,5.00
2023-05-04T09:05:43.031Z,4.70
2023-05-04T09:06:47.299Z,5.40
2023-05-04T09:07:52.467Z,5.07
2023-05-04T09:08:54.460Z,4.40
2023-05-04T09:09:58.662Z,4.90
2023-05-04T09:11:00.631Z,4.95
2023-05-04T09:12:03.576Z,4.60
2023-05-04T09:13:08.359Z,4.60
2023-05-04T09:14:10.555Z,4.35
2023-05-04T09:15:17.895Z,3.97
2023-05-04T09:16:21.117Z,4.47
2023-05-04T09:17:27.875Z,4.22
2023-05-04T09:18:38.422Z,4.57
2023-05-04T09:19:43.807Z,4.70
2023-05-04T09:20:47.881Z,5.57
2023-05-04T09:21:54.316Z,4.10
2023-05-04T09:23:06.866Z,3.95
2023-05-04T09:24:09.924Z,4.57
2023-05-04T09:25:14.311Z,4.88
2023-05-04T09:26:26.852Z,4.53
2023-05-04T09:27:29.770Z,4.18
2023-05-04T09:28:39.140Z,4.50
2023-05-04T09:29:42.297Z,4.55
2023-05-04T09:30:45.799Z,4.00
2023-05-04T09:31:49.984Z,3.75
2023-05-04T09:32:53.005Z,5.10
2023-05-04T09:33:55.966Z,3.80
2023-05-04T09:34:57.902Z,3.45
2023-05-04T09:36:13.081Z,4.18
2023-05-04T09:37:16.156Z,4.25
2023-05-04T09:38:27.188Z,4.13
2023-05-04T09:39:30.365Z,4.38
2023-05-04T09:40:34.602Z,4.60
2023-05-04T09:41:36.657Z,4.88
2023-05-04T09:42:39.604Z,3.78
2023-05-04T09:43:44.991Z,3.28
2023-05-04T09:44:47.359Z,3.90
2023-05-04T09:45:51.407Z,4.28
2023-05-04T09:46:55.336Z,3.95
2023-05-04T09:47:58.691Z,4.13
2023-05-04T09:49:02.089Z,4.63
2023-05-04T09:50:21.021Z,4.78
2023-05-04T09:51:25.602Z,3.78
2023-05-04T09:52:30.926Z,3.95
2023-05-04T09:53:36.017Z,3.05
2023-05-04T09:54:41.597Z,3.45
2023-05-04T09:55:47.641Z,3.70
2023-05-04T09:56:53.615Z,3.83
2023-05-04T09:57:56.143Z,3.85
2023-05-04T09:59:00.755Z,3.58
2023-05-04T10:00:04.393Z,3.33
2023-05-04T10:01:08.273Z,4.18
2023-05-04T10:02:21.865Z,4.10
2023-05-04T10:03:27.975Z,4.15
2023-05-04T10:04:32.569Z,4.20
2023-05-04T10:05:34.616Z,3.33
2023-05-04T10:06:38.060Z,4.03
2023-05-04T10:07:41.593Z,2.65
2023-05-04T10:08:45.514Z,3.50
2023-05-04T10:09:49.085Z,3.38
2023-05-04T10:10:53.092Z,3.95
2023-05-04T10:11:56.358Z,3.80
2023-05-04T10:12:59.302Z,4.10
2023-05-04T10:14:03.743Z,2.90
2023-05-04T10:15:07.350Z,4.03
2023-05-04T10:16:24.202Z,4.05
2023-05-04T10:17:41.013Z,3.28
2023-05-04T10:19:00.482Z,3.65
2023-05-04T10:20:20.937Z,3.38
2023-05-04T10:21:31.018Z,2.97
2023-05-04T10:22:46.946Z,2.97
2023-05-04T10:24:08.150Z,3.05
2023-05-04T10:25:33.309Z,2.92
2023-05-04T10:27:00.542Z,4.40
2023-05-04T10:28:15.280Z,2.70
2023-05-04T10:29:23.873Z,4.15
2023-05-04T10:30:26.192Z,3.50
2023-05-04T10:31:39.027Z,2.60
2023-05-04T10:32:42.264Z,2.90
2023-05-04T10:33:45.963Z,2.85
2023-05-04T10:34:49.587Z,3.20
2023-05-04T10:35:52.825Z,3.10
2023-05-04T10:36:55.895Z,3.00
2023-05-04T10:37:59.066Z,3.38
2023-05-04T10:39:01.508Z,3.13
2023-05-04T10:40:08.133Z,3.08
2023-05-04T10:41:18.262Z,3.30
2023-05-04T10:42:21.373Z,2.83
2023-05-04T10:43:24.023Z,2.63
2023-05-04T10:44:29.082Z,2.72
2023-05-04T10:45:39.345Z,3.13
2023-05-04T10:46:42.425Z,2.63
2023-05-04T10:47:44.419Z,3.08
2023-05-04T10:48:47.388Z,3.25
2023-05-04T10:49:49.393Z,2.78
2023-05-04T10:50:52.512Z,2.97
2023-05-04T10:52:10.058Z,3.03
2023-05-04T10:53:13.507Z,2.95
2023-05-04T10:54:20.616Z,3.35
2023-05-04T10:55:24.883Z,3.88
2023-05-04T10:56:29.400Z,3.08
2023-05-04T10:57:31.450Z,2.97
2023-05-04T10:58:34.474Z,3.70
2023-05-04T10:59:38.637Z,2.65
2023-05-04T11:00:43.021Z,3.05
2023-05-04T11:01:45.095Z,2.92
2023-05-04T11:02:50.337Z,2.65
2023-05-04T11:03:55.208Z,2.45
2023-05-04T11:05:07.124Z,2.65
2023-05-04T11:06:17.588Z,2.90
2023-05-04T11:07:20.648Z,2.90
2023-05-04T11:08:25.294Z,3.33
2023-05-04T11:09:28.132Z,2.90
2023-05-04T11:10:31.279Z,2.35
2023-05-04T11:11:37.771Z,2.88
2023-05-04T11:12:40.007Z,3.33
2023-05-04T11:13:48.222Z,3.65
2023-05-04T11:14:52.498Z,2.60
2023-05-04T11:15:56.180Z,2.45
2023-05-04T11:17:26.072Z,2.83
2023-05-04T11:18:32.492Z,3.10
2023-05-04T11:19:34.795Z,2.50
2023-05-04T11:20:37.796Z,2.53
2023-05-04T11:21:40.934Z,3.70
2023-05-04T11:22:44.033Z,2.72
2023-05-04T11:23:47.043Z,2.45
2023-05-04T11:24:49.207Z,2.55
2023-05-04T11:25:52.142Z,3.00
2023-05-04T11:26:54.113Z,3.60
2023-05-04T11:27:57.392Z,3.58
2023-05-04T11:28:59.378Z,2.50
2023-05-04T11:30:05.343Z,2.20
2023-05-04T11:31:13.875Z,2.83
2023-05-04T11:32:16.921Z,2.78
2023-05-04T11:33:19.860Z,2.60
2023-05-04T11:34:22.346Z,2.15
2023-05-04T11:35:25.271Z,2.70
2023-05-04T11:36:28.573Z,2.17
2023-05-04T11:37:32.300Z,2.63
2023-05-04T11:38:35.380Z,2.40
2023-05-04T11:39:37.384Z,2.72
2023-05-04T11:40:41.273Z,2.42
2023-05-04T11:41:44.373Z,2.83
2023-05-04T11:42:49.616Z,2.42
2023-05-04T11:43:53.172Z,2.50
2023-05-04T11:44:56.957Z,2.38
2023-05-04T11:46:02.634Z,2.17
2023-05-04T11:47:05.030Z,2.20
2023-05-04T11:48:10.291Z,2.10
2023-05-04T11:49:13.586Z,2.42
2023-05-04T11:50:17.837Z,2.78
2023-05-04T11:51:24.377Z,2.80
2023-05-04T11:52:27.623Z,1.90
2023-05-04T11:53:38.384Z,2.08
2023-05-04T11:54:42.606Z,2.28
2023-05-04T11:55:45.557Z,2.35
2023-05-04T11:56:48.636Z,2.13
2023-05-04T11:57:56.940Z,2.15
2023-05-04T11:59:09.115Z,2.25
2023-05-04T12:00:13.356Z,2.30
2023-05-04T12:01:17.735Z,2.22
2023-05-04T12:02:21.310Z,2.13
2023-05-04T12:03:32.680Z,2.20
2023-05-04T12:04:46.803Z,1.98
2023-05-04T12:05:50.786Z,2.40
2023-05-04T12:06:53.830Z,2.00
2023-05-04T12:07:55.843Z,1.90
2023-05-04T12:09:04.206Z,2.15
2023-05-04T12:10:08.120Z,1.77
2023-05-04T12:11:12.948Z,1.60
2023-05-04T12:12:18.925Z,2.05
2023-05-04T12:13:21.908Z,1.77
2023-05-04T12:14:24.774Z,1.80
2023-05-04T12:15:32.381Z,2.30
2023-05-04T12:16:36.815Z,1.73
2023-05-04T12:17:43.100Z,1.75
2023-05-04T12:18:46.844Z,1.90
2023-05-04T12:19:51.820Z,2.25
2023-05-04T12:20:53.853Z,2.60
2023-05-04T12:22:01.081Z,2.20
2023-05-04T12:23:06.558Z,1.90
2023-05-04T12:24:09.782Z,1.70
2023-05-04T12:25:11.779Z,1.83
2023-05-04T12:26:18.799Z,1.92
2023-05-04T12:27:21.748Z,1.75
2023-05-04T12:28:26.820Z,2.25
2023-05-04T12:29:29.827Z,1.55
2023-05-04T12:30:32.987Z,2.42
2023-05-04T12:31:37.403Z,1.90
2023-05-04T12:32:39.636Z,1.50
2023-05-04T12:33:42.604Z,1.70
2023-05-04T12:34:44.678Z,1.88
2023-05-04T12:35:47.997Z,1.90
2023-05-04T12:36:51.881Z,1.83
2023-05-04T12:37:53.809Z,2.30
2023-05-04T12:38:56.760Z,2.00
2023-05-04T12:39:58.723Z,1.90
2023-05-04T12:41:04.244Z,1.90
2023-05-04T12:42:07.318Z,2.10
2023-05-04T12:43:10.306Z,2.17
2023-05-04T12:44:14.304Z,1.95
2023-05-04T12:45:18.319Z,2.00
2023-05-04T12:46:22.578Z,1.90
2023-05-04T12:47:27.058Z,2.10
2023-05-04T12:48:32.719Z,1.77
2023-05-04T12:49:35.853Z,1.58
2023-05-04T12:50:38.926Z,1.85
2023-05-04T12:51:41.967Z,1.98
2023-05-04T12:52:44.945Z,1.63
2023-05-04T12:53:47.917Z,1.80
2023-05-04T12:54:50.955Z,1.70
2023-05-04T12:55:52.895Z,2.47
2023-05-04T12:56:56.046Z,2.00
2023-05-04T12:57:58.051Z,2.10
2023-05-04T12:59:00.973Z,1.42
2023-05-04T13:00:06.987Z,1.98
2023-05-04T13:01:10.007Z,1.83
2023-05-04T13:02:12.979Z,1.55
2023-05-04T13:03:18.318Z,1.88
2023-05-04T13:04:21.584Z,1.88
2023-05-04T13:05:24.525Z,1.98
2023-05-04T13:06:27.501Z,2.20
2023-05-04T13:07:29.434Z,1.42
2023-05-04T13:08:33.519Z,1.95
2023-05-04T13:09:35.558Z,1.55
2023-05-04T13:10:38.532Z,1.80
2023-05-04T13:11:40.511Z,2.03
2023-05-04T13:12:45.487Z,1.75
2023-05-04T13:13:49.113Z,2.00
2023-05-04T13:14:55.240Z,2.03
2023-05-04T13:15:58.262Z,1.25
2023-05-04T13:17:01.319Z,1.40
2023-05-04T13:18:04.394Z,1.75
2023-05-04T13:19:08.789Z,1.55
2023-05-04T13:20:12.176Z,1.52
2023-05-04T13:21:15.136Z,1.67
2023-05-04T13:22:18.107Z,1.95
2023-05-04T13:23:22.132Z,1.70
2023-05-04T13:24:24.176Z,1.60
2023-05-04T13:25:27.134Z,1.40
2023-05-04T13:26:30.063Z,1.67
2023-05-04T13:27:32.775Z,1.35
2023-05-04T13:28:37.812Z,1.83
2023-05-04T13:29:41.550Z,1.38
2023-05-04T13:30:44.695Z,1.65
2023-05-04T13:31:47.745Z,1.70
2023-05-04T13:32:51.103Z,1.80
2023-05-04T13:33:54.115Z,1.80
2023-05-04T13:34:58.589Z,1.70
2023-05-04T13:36:03.022Z,1.38
2023-05-04T13:37:06.081Z,1.40
2023-05-04T13:38:09.724Z,1.67
2023-05-04T13:39:12.642Z,1.83
2023-05-04T13:40:14.731Z,1.70
2023-05-04T13:41:17.918Z,1.65
2023-05-04T13:42:19.943Z,1.77
2023-05-04T13:43:23.055Z,1.92
2023-05-04T13:44:25.967Z,2.25
2023-05-04T13:45:27.949Z,1.60
2023-05-04T13:46:31.098Z,1.42
2023-05-04T13:47:34.179Z,1.80
2023-05-04T13:48:37.111Z,1.50
2023-05-04T13:49:39.316Z,1.23
2023-05-04T13:50:43.737Z,1.27
2023-05-04T13:51:47.152Z,1.42
2023-05-04T13:52:50.036Z,1.48
2023-05-04T13:53:51.963Z,1.30
2023-05-04T13:54:54.875Z,1.35
2023-05-04T13:55:57.755Z,1.60
2023-05-04T13:57:00.707Z,1.80
2023-05-04T13:58:03.997Z,1.52
2023-05-04T13:59:06.902Z,1.63
2023-05-04T14:00:10.668Z,1.50
2023-05-04T14:01:13.964Z,1.55
2023-05-04T14:02:15.958Z,1.30
2023-05-04T14:03:19.042Z,1.58
2023-05-04T14:04:21.108Z,1.30
2023-05-04T14:05:24.500Z,1.15
2023-05-04T14:06:29.724Z,1.48
2023-05-04T14:07:31.770Z,1.40
2023-05-04T14:08:34.789Z,1.45
2023-05-04T14:09:37.875Z,1.33